Terminal Aerodrome Forecast
Issued by NWS

Home | Current Version | Previous Version | Text Only | Print | Product List | Glossary On
Versions: 1 2 3 4 5 6 7 8 9 10 11 12 13 14 15 16 17 18 19
000
FTUS42 KMLB 061126
TAFSUA
TAF
KSUA 061126Z 0612/0712 03007KT P6SM VCSH SCT015 SCT020 OVC035
      TEMPO 0612/0613 5SM SHRA BKN020
     FM061300 05008KT P6SM VCSH SCT020 BKN030
      TEMPO 0613/0616 4SM SHRA BKN020
     FM061600 33009KT P6SM SCT020 BKN030
      TEMPO 0616/0619 4SM SHRA BKN020
     FM062000 32010KT P6SM SCT020 BKN040
     FM070000 34008KT P6SM SCT030 SCT250
     FM070600 31009KT P6SM SCT250=

USA.gov is the U.S. government's official web portal to all federal, state and local government web resources and services.